Time;durP1;ratioP1;P1;durP2;ratioP2;P2;SDS_P1;SDS_P2;PMS_P1;PMS_P2;Temp;Humidity;BMP_temperature;BMP_pressure;BME280_temperature;BME280_humidity;BME280_pressure;Samples;Min_cycle;Max_cycle;Signal;HPM_P1;HPM_P2
2023/04/21 00:02:14;;;;;;;58.30;44.80;;;;;;;5.74;100.00;99095.70;105976;1253;59615;-72
2023/04/21 00:04:44;;;;;;;50.00;40.10;;;;;;;5.70;100.00;99089.17;105869;1251;64517;-72
2023/04/21 00:07:13;;;;;;;53.40;42.50;;;;;;;5.67;100.00;99094.09;105797;1251;61278;-72
2023/04/21 00:09:40;;;;;;;59.80;42.70;;;;;;;5.63;100.00;99094.23;105799;1251;64659;-72
2023/04/21 00:12:07;;;;;;;52.90;42.20;;;;;;;5.60;100.00;99091.41;105829;1251;59657;-73
2023/04/21 00:14:33;;;;;;;55.00;41.50;;;;;;;5.57;100.00;99093.67;105883;1251;59830;-72
2023/04/21 00:16:59;;;;;;;60.50;45.20;;;;;;;5.54;100.00;99089.92;105863;1253;64443;-72
2023/04/21 00:19:27;;;;;;;61.20;47.00;;;;;;;5.50;100.00;99090.09;105842;1253;59757;-72
2023/04/21 00:21:57;;;;;;;62.70;44.30;;;;;;;5.47;100.00;99088.45;105867;1253;64781;-73
2023/04/21 00:24:25;;;;;;;59.30;44.10;;;;;;;5.44;100.00;99088.07;105739;1251;59696;-73
2023/04/21 00:26:51;;;;;;;59.90;46.40;;;;;;;5.39;100.00;99087.25;105836;1251;59623;-72
2023/04/21 00:29:18;;;;;;;58.50;45.70;;;;;;;5.35;100.00;99083.91;105866;1251;64076;-72
2023/04/21 00:31:44;;;;;;;55.00;45.60;;;;;;;5.31;100.00;99083.89;105841;1253;60064;-72
2023/04/21 00:34:11;;;;;;;67.00;47.70;;;;;;;5.26;100.00;99081.09;105809;1253;59695;-72
2023/04/21 00:36:37;;;;;;;69.00;49.90;;;;;;;5.23;100.00;99083.70;105816;1255;59747;-72
2023/04/21 00:39:04;;;;;;;66.00;47.40;;;;;;;5.20;100.00;99085.92;105860;1253;60853;-72
2023/04/21 00:41:33;;;;;;;67.60;50.20;;;;;;;5.18;100.00;99087.25;105867;1255;59686;-72
2023/04/21 00:44:04;;;;;;;70.50;54.40;;;;;;;5.16;100.00;99088.40;105839;1253;60162;-72
2023/04/21 00:46:31;;;;;;;64.30;51.80;;;;;;;5.15;100.00;99087.91;105858;1251;63989;-72
2023/04/21 00:48:59;;;;;;;74.70;54.20;;;;;;;5.15;100.00;99087.38;105628;1251;59610;-72
2023/04/21 00:51:27;;;;;;;69.30;54.40;;;;;;;5.15;100.00;99089.34;105840;1255;59545;-72
2023/04/21 00:53:54;;;;;;;80.10;60.90;;;;;;;5.16;100.00;99087.91;105872;1251;65189;-72
2023/04/21 00:56:21;;;;;;;75.80;55.80;;;;;;;5.17;100.00;99088.72;105818;1253;59771;-72
2023/04/21 00:58:48;;;;;;;70.10;55.80;;;;;;;5.18;100.00;99090.46;105877;1251;64793;-72
2023/04/21 01:01:14;;;;;;;85.60;62.00;;;;;;;5.17;100.00;99095.05;105598;1255;59664;-72
2023/04/21 01:03:41;;;;;;;68.40;52.80;;;;;;;5.18;100.00;99095.39;105876;1255;59614;-72
2023/04/21 01:06:09;;;;;;;67.80;53.10;;;;;;;5.16;100.00;99091.79;105836;1251;64005;-73
2023/04/21 01:08:35;;;;;;;63.70;49.70;;;;;;;5.12;100.00;99085.09;106122;1253;59948;-73
2023/04/21 01:11:09;;;;;;;65.20;52.90;;;;;;;5.07;100.00;99084.73;105865;1253;60483;-73
2023/04/21 01:13:37;;;;;;;66.30;49.60;;;;;;;5.03;100.00;99086.31;105914;1255;60460;-73
2023/04/21 01:16:05;;;;;;;64.20;49.20;;;;;;;5.01;100.00;99086.94;105878;1255;60491;-73
2023/04/21 01:18:31;;;;;;;64.90;51.50;;;;;;;5.00;100.00;99089.64;105842;1256;65237;-73
2023/04/21 01:20:58;;;;;;;63.50;47.60;;;;;;;4.98;100.00;99084.59;105835;1255;60443;-73
2023/04/21 01:23:24;;;;;;;60.70;47.30;;;;;;;4.96;100.00;99086.98;105824;1253;63624;-73
2023/04/21 01:25:51;;;;;;;58.90;46.30;;;;;;;4.92;100.00;99089.78;105585;1256;60535;-71
2023/04/21 01:28:22;;;;;;;60.80;46.20;;;;;;;4.89;100.00;99084.29;105832;1251;60798;-71
2023/04/21 01:30:48;;;;;;;62.80;47.00;;;;;;;4.88;100.00;99080.32;105869;1256;65838;-71
2023/04/21 01:33:16;;;;;;;66.70;50.10;;;;;;;4.87;100.00;99078.56;105858;1253;60643;-72
2023/04/21 01:35:43;;;;;;;62.50;48.20;;;;;;;4.89;100.00;99080.62;105871;1252;63812;-72
2023/04/21 01:38:09;;;;;;;61.20;49.30;;;;;;;4.87;100.00;99079.11;105846;1255;60381;-72
2023/04/21 01:40:37;;;;;;;64.30;47.60;;;;;;;4.87;100.00;99081.92;105839;1255;60467;-72
2023/04/21 01:43:03;;;;;;;65.40;49.90;;;;;;;4.88;100.00;99086.48;105804;1255;65949;-72
2023/04/21 01:45:30;;;;;;;74.30;55.90;;;;;;;4.90;100.00;99084.41;105812;1255;60899;-72
2023/04/21 01:47:57;;;;;;;67.70;50.50;;;;;;;4.96;100.00;99081.55;105823;1255;63603;-72
2023/04/21 01:50:23;;;;;;;70.90;51.60;;;;;;;5.00;100.00;99080.48;105805;1252;60482;-72
2023/04/21 01:52:50;;;;;;;57.70;47.00;;;;;;;5.03;100.00;99082.48;105787;1251;60640;-73
2023/04/21 01:55:16;;;;;;;64.10;49.00;;;;;;;5.04;100.00;99079.23;105779;1257;60451;-73
2023/04/21 01:57:43;;;;;;;61.50;49.30;;;;;;;5.06;100.00;99078.63;105548;1253;60537;-73
2023/04/21 02:00:28;;;;;;;63.30;48.80;;;;;;;5.10;100.00;99079.36;105863;1253;60506;-73
2023/04/21 02:02:54;;;;;;;61.60;48.00;;;;;;;5.12;100.00;99078.72;105791;1251;60464;-73
2023/04/21 02:05:21;;;;;;;67.40;51.60;;;;;;;5.14;100.00;99081.27;105794;1253;60474;-73
2023/04/21 02:07:47;;;;;;;68.00;51.80;;;;;;;5.18;100.00;99082.34;105832;1253;65938;-73
2023/04/21 02:10:14;;;;;;;67.10;54.00;;;;;;;5.21;100.00;99082.40;105741;1258;60508;-73
2023/04/21 02:12:40;;;;;;;66.60;53.50;;;;;;;5.24;100.00;99079.79;105973;1256;63718;-73
2023/04/21 02:15:07;;;;;;;69.20;55.30;;;;;;;5.28;100.00;99083.83;105866;1252;60494;-72
2023/04/21 02:17:33;;;;;;;75.60;56.40;;;;;;;5.33;100.00;99086.63;105909;1257;60517;-72
2023/04/21 02:20:00;;;;;;;74.50;55.80;;;;;;;5.36;100.00;99086.48;105914;1255;60325;-72
2023/04/21 02:22:27;;;;;;;70.80;53.90;;;;;;;5.39;100.00;99083.34;105814;1253;60435;-72
2023/04/21 02:24:53;;;;;;;67.70;53.80;;;;;;;5.43;100.00;99086.18;105858;1256;60467;-72
2023/04/21 02:27:23;;;;;;;72.80;53.70;;;;;;;5.46;100.00;99089.21;105565;1253;60572;-73
2023/04/21 02:29:49;;;;;;;70.90;54.60;;;;;;;5.49;100.00;99087.33;105831;1255;60436;-73
2023/04/21 02:32:16;;;;;;;78.20;56.50;;;;;;;5.52;100.00;99089.84;105781;1251;64800;-73
2023/04/21 02:34:42;;;;;;;73.50;54.90;;;;;;;5.54;100.00;99086.55;105779;1253;60512;-73
2023/04/21 02:37:08;;;;;;;67.20;55.80;;;;;;;5.56;100.00;99086.86;105805;1253;60450;-72
2023/04/21 02:39:35;;;;;;;73.30;55.30;;;;;;;5.58;100.00;99086.95;105832;1255;60477;-73
2023/04/21 02:42:01;;;;;;;68.40;55.80;;;;;;;5.59;100.00;99089.35;105856;1255;60445;-73
2023/04/21 02:44:28;;;;;;;66.40;54.90;;;;;;;5.60;100.00;99087.02;105922;1253;60462;-74
2023/04/21 02:46:54;;;;;;;70.80;56.40;;;;;;;5.59;100.00;99085.81;105953;1256;60464;-73
2023/04/21 02:49:21;;;;;;;71.80;56.70;;;;;;;5.56;100.00;99085.94;105810;1254;60579;-73
2023/04/21 02:51:47;;;;;;;71.60;53.80;;;;;;;5.53;100.00;99087.66;105900;1255;60553;-73
2023/04/21 02:54:13;;;;;;;65.00;51.50;;;;;;;5.50;100.00;99087.29;105877;1255;60425;-72
2023/04/21 02:56:40;;;;;;;68.00;53.10;;;;;;;5.46;100.00;99084.61;105844;1255;60341;-73
2023/04/21 02:59:06;;;;;;;68.00;52.30;;;;;;;5.42;100.00;99083.06;105897;1255;60545;-73
2023/04/21 03:01:33;;;;;;;71.70;57.40;;;;;;;5.38;100.00;99079.36;105889;1255;60540;-74
2023/04/21 03:03:59;;;;;;;73.80;56.00;;;;;;;5.34;100.00;99079.36;105931;1253;60556;-73
2023/04/21 03:06:27;;;;;;;74.00;54.40;;;;;;;5.28;100.00;99076.26;105909;1253;60759;-73
2023/04/21 03:08:53;;;;;;;76.40;58.30;;;;;;;5.25;100.00;99078.70;105955;1253;63937;-73
2023/04/21 03:11:20;;;;;;;73.30;57.60;;;;;;;5.21;100.00;99078.50;105756;1253;60555;-73
2023/04/21 03:13:46;;;;;;;76.50;61.60;;;;;;;5.18;100.00;99079.53;105837;1255;60579;-73
2023/04/21 03:16:13;;;;;;;92.50;70.30;;;;;;;5.14;100.00;99079.90;105749;1253;60541;-73
2023/04/21 03:18:48;;;;;;;83.90;68.70;;;;;;;5.10;100.00;99083.58;105805;1255;60501;-73
2023/04/21 03:21:15;;;;;;;82.20;64.40;;;;;;;5.07;100.00;99082.66;105567;1259;65814;-73
2023/04/21 03:23:41;;;;;;;80.30;62.50;;;;;;;5.04;100.00;99084.01;105782;1256;60430;-73
2023/04/21 03:26:08;;;;;;;79.60;61.80;;;;;;;5.01;100.00;99082.73;105775;1255;60488;-73
2023/04/21 03:28:34;;;;;;;80.70;61.20;;;;;;;4.98;100.00;99084.41;105783;1253;60561;-73
2023/04/21 03:31:01;;;;;;;72.40;59.80;;;;;;;4.95;100.00;99087.02;105789;1256;60409;-75
2023/04/21 03:33:28;;;;;;;70.80;55.80;;;;;;;4.91;100.00;99086.52;105804;1253;64112;-74
2023/04/21 03:35:54;;;;;;;69.50;55.10;;;;;;;4.86;100.00;99089.34;105844;1253;60446;-73
2023/04/21 03:38:20;;;;;;;69.10;54.70;;;;;;;4.82;100.00;99088.45;105780;1253;60425;-73
2023/04/21 03:40:47;;;;;;;61.00;50.50;;;;;;;4.78;100.00;99085.63;105793;1255;60415;-72
2023/04/21 03:43:14;;;;;;;63.10;50.70;;;;;;;4.75;100.00;99088.07;105796;1254;60330;-72
2023/04/21 03:45:40;;;;;;;62.60;50.00;;;;;;;4.71;100.00;99093.13;105789;1253;65957;-72
2023/04/21 03:48:07;;;;;;;69.10;54.40;;;;;;;4.68;100.00;99089.73;105796;1252;60529;-71
2023/04/21 03:50:33;;;;;;;71.90;54.30;;;;;;;4.67;100.00;99096.48;105756;1256;60552;-72
2023/04/21 03:53:00;;;;;;;64.20;54.40;;;;;;;4.67;100.00;99097.88;105800;1255;60552;-72
2023/04/21 03:55:26;;;;;;;66.40;52.70;;;;;;;4.68;100.00;99098.02;105785;1253;60460;-72
2023/04/21 03:57:53;;;;;;;66.20;53.60;;;;;;;4.70;100.00;99105.16;105795;1255;60553;-72
2023/04/21 04:00:20;;;;;;;63.80;52.90;;;;;;;4.71;100.00;99106.68;105814;1254;60421;-72
2023/04/21 04:02:46;;;;;;;66.70;54.20;;;;;;;4.75;100.00;99104.93;105790;1253;64564;-73
2023/04/21 04:05:13;;;;;;;70.80;57.00;;;;;;;4.81;100.00;99108.92;105780;1253;60451;-73
2023/04/21 04:07:40;;;;;;;70.90;58.30;;;;;;;4.92;100.00;99109.54;105788;1254;60438;-73
2023/04/21 04:10:06;;;;;;;69.80;55.90;;;;;;;5.16;100.00;99112.19;105793;1255;65076;-73
2023/04/21 04:12:33;;;;;;;68.30;59.50;;;;;;;5.44;100.00;99110.11;105845;1256;60479;-73
2023/04/21 04:15:06;;;;;;;65.90;56.10;;;;;;;5.71;100.00;99110.83;105800;1255;60420;-73
2023/04/21 04:17:33;;;;;;;66.20;54.80;;;;;;;5.98;100.00;99114.02;105728;1253;60624;-73
2023/04/21 04:20:00;;;;;;;61.50;52.20;;;;;;;6.28;100.00;99110.85;105842;1253;60486;-73
2023/04/21 04:22:27;;;;;;;66.60;51.40;;;;;;;6.60;100.00;99107.40;105841;1253;64121;-74
2023/04/21 04:24:54;;;;;;;63.70;49.60;;;;;;;6.90;100.00;99108.90;105876;1253;60531;-74
2023/04/21 04:27:20;;;;;;;63.40;48.40;;;;;;;7.21;100.00;99113.37;105825;1256;64619;-73
2023/04/21 04:29:48;;;;;;;63.50;50.00;;;;;;;7.53;100.00;99111.88;105761;1255;60443;-73
2023/04/21 04:32:14;;;;;;;62.00;49.10;;;;;;;7.87;100.00;99111.63;105824;1253;60402;-73
2023/04/21 04:34:41;;;;;;;55.20;47.50;;;;;;;8.22;100.00;99111.87;105510;1253;60345;-75
2023/04/21 04:37:09;;;;;;;60.80;48.20;;;;;;;8.53;100.00;99112.25;105792;1255;60445;-72
2023/04/21 04:39:36;;;;;;;53.00;44.50;;;;;;;8.85;100.00;99110.45;105773;1253;64796;-72
2023/04/21 04:42:07;;;;;;;57.30;44.10;;;;;;;9.12;100.00;99112.59;105828;1252;60419;-72
2023/04/21 04:44:35;;;;;;;49.20;40.90;;;;;;;9.31;100.00;99113.94;105807;1253;60424;-73
2023/04/21 04:47:01;;;;;;;44.70;36.30;;;;;;;9.51;100.00;99112.35;105816;1253;63922;-71
2023/04/21 04:49:28;;;;;;;46.70;39.50;;;;;;;9.79;100.00;99111.75;105837;1255;60547;-73
2023/04/21 04:51:54;;;;;;;48.30;40.70;;;;;;;10.00;100.00;99109.70;105799;1256;60505;-73
2023/04/21 04:54:21;;;;;;;48.30;40.60;;;;;;;10.25;100.00;99109.19;105808;1256;60543;-72
2023/04/21 04:56:48;;;;;;;51.30;41.90;;;;;;;10.51;100.00;99115.58;105734;1253;60348;-72
2023/04/21 04:59:14;;;;;;;52.40;43.30;;;;;;;10.78;100.00;99113.12;105810;1253;66374;-73
2023/04/21 05:01:41;;;;;;;52.70;43.40;;;;;;;11.02;100.00;99113.43;105824;1253;60432;-72
2023/04/21 05:04:07;;;;;;;45.70;40.10;;;;;;;11.25;100.00;99117.05;105813;1253;60483;-72
2023/04/21 05:06:34;;;;;;;53.20;43.40;;;;;;;11.50;100.00;99118.41;105525;1260;60473;-73
2023/04/21 05:09:01;;;;;;;44.70;39.40;;;;;;;11.76;100.00;99114.09;105840;1253;60429;-73
2023/04/21 05:11:27;;;;;;;45.90;41.00;;;;;;;12.02;100.00;99117.61;105753;1256;60320;-73
2023/04/21 05:13:54;;;;;;;51.10;42.60;;;;;;;12.27;100.00;99116.95;105794;1253;60414;-73
2023/04/21 05:16:20;;;;;;;47.20;42.10;;;;;;;12.50;100.00;99113.30;105789;1255;62848;-73
2023/04/21 05:18:49;;;;;;;44.30;39.10;;;;;;;12.79;100.00;99114.70;105790;1253;60545;-73
2023/04/21 05:21:26;;;;;;;44.90;39.60;;;;;;;13.06;100.00;99113.23;105595;1253;60361;-73
2023/04/21 05:23:57;;;;;;;43.30;38.80;;;;;;;13.26;100.00;99110.69;105559;1253;65275;-73
2023/04/21 05:26:26;;;;;;;41.20;36.90;;;;;;;13.45;100.00;99114.04;105796;1255;60752;-73
2023/04/21 05:28:53;;;;;;;49.60;39.60;;;;;;;13.65;100.00;99112.52;106043;1256;64787;-73
2023/04/21 05:31:20;;;;;;;45.40;37.40;;;;;;;13.81;100.00;99113.57;105791;1253;60436;-73
2023/04/21 05:33:47;;;;;;;40.50;36.20;;;;;;;13.90;100.00;99117.70;105722;1253;60483;-75
2023/04/21 05:36:13;;;;;;;41.70;35.00;;;;;;;14.01;100.00;99120.39;105790;1253;65963;-73
2023/04/21 05:38:39;;;;;;;42.30;34.80;;;;;;;14.11;100.00;99120.20;105810;1256;61492;-73
2023/04/21 05:41:06;;;;;;;39.20;35.00;;;;;;;14.21;100.00;99117.57;105809;1256;60434;-73
2023/04/21 05:43:34;;;;;;;40.50;35.60;;;;;;;14.37;99.79;99113.62;105767;1254;60451;-72
2023/04/21 05:46:01;;;;;;;39.00;34.50;;;;;;;14.48;98.74;99114.68;105842;1255;60435;-74
2023/04/21 05:48:28;;;;;;;47.40;38.20;;;;;;;14.53;97.22;99113.80;106002;1255;65709;-73
2023/04/21 05:50:55;;;;;;;47.20;37.50;;;;;;;14.52;96.31;99115.83;105911;1253;60488;-74
2023/04/21 05:53:22;;;;;;;40.30;36.10;;;;;;;14.61;97.07;99115.81;105896;1255;64651;-73
2023/04/21 05:55:49;;;;;;;44.80;38.40;;;;;;;14.85;97.32;99113.67;109511;1253;58269;-74
2023/04/21 05:58:15;;;;;;;44.00;38.20;;;;;;;15.05;96.25;99109.70;109535;1252;58296;-75
2023/04/21 06:00:42;;;;;;;43.80;37.10;;;;;;;15.18;95.58;99109.98;109522;1253;58245;-74
2023/04/21 06:03:08;;;;;;;42.30;36.60;;;;;;;15.39;95.07;99108.79;109532;1252;58263;-72
2023/04/21 06:05:35;;;;;;;41.10;36.00;;;;;;;15.59;94.34;99104.39;109524;1252;58137;-72
2023/04/21 06:08:02;;;;;;;46.70;37.70;;;;;;;15.76;93.03;99101.14;109451;1253;58198;-73
2023/04/21 06:10:29;;;;;;;43.30;37.20;;;;;;;15.90;92.55;99104.45;109478;1253;58046;-73
2023/04/21 06:12:56;;;;;;;42.90;35.80;;;;;;;16.13;92.61;99102.05;109540;1252;65421;-73
2023/04/21 06:15:22;;;;;;;40.00;35.30;;;;;;;16.36;91.54;99103.17;109553;1253;60176;-74
2023/04/21 06:17:54;;;;;;;47.70;36.00;;;;;;;16.54;90.25;99105.55;109160;1252;58397;-72
2023/04/21 06:20:20;;;;;;;43.50;35.30;;;;;;;16.63;88.87;99105.80;109451;1253;58195;-73
2023/04/21 06:22:47;;;;;;;47.00;34.70;;;;;;;16.70;88.11;99107.54;109533;1252;58167;-73
2023/04/21 06:25:13;;;;;;;38.90;34.60;;;;;;;16.76;88.14;99109.12;109518;1252;58209;-73
2023/04/21 06:27:39;;;;;;;40.20;34.30;;;;;;;16.98;88.17;99110.02;109541;1251;58168;-73
2023/04/21 06:30:06;;;;;;;42.90;34.80;;;;;;;17.02;86.37;99107.18;109541;1253;58256;-73
2023/04/21 06:32:33;;;;;;;42.20;34.80;;;;;;;17.02;86.24;99105.23;109490;1253;58161;-73
2023/04/21 06:34:59;;;;;;;43.10;36.70;;;;;;;17.16;86.18;99105.55;109541;1253;58164;-72
2023/04/21 06:37:26;;;;;;;40.90;32.70;;;;;;;17.29;85.61;99106.81;109531;1253;58371;-73
2023/04/21 06:39:52;;;;;;;43.30;33.70;;;;;;;17.41;84.73;99105.13;109527;1253;58276;-73
2023/04/21 06:42:19;;;;;;;37.60;32.40;;;;;;;17.49;84.07;99106.70;109164;1253;58316;-73
2023/04/21 06:44:45;;;;;;;36.70;29.40;;;;;;;17.50;82.83;99105.05;109501;1255;58499;-74
2023/04/21 06:47:12;;;;;;;32.40;28.30;;;;;;;17.46;81.92;99105.58;109488;1251;58361;-73
2023/04/21 06:49:39;;;;;;;37.10;29.90;;;;;;;17.33;81.00;99108.27;109523;1251;58462;-73
2023/04/21 06:52:05;;;;;;;38.10;29.10;;;;;;;17.14;80.95;99108.04;109541;1253;60241;-73
2023/04/21 06:54:31;;;;;;;33.20;28.90;;;;;;;16.84;81.55;99106.97;109517;1254;58274;-72
2023/04/21 06:56:58;;;;;;;35.50;29.60;;;;;;;16.70;81.90;99106.58;109228;1252;58154;-73
2023/04/21 06:59:24;;;;;;;37.30;31.30;;;;;;;16.52;81.81;99109.48;109526;1253;58201;-73
2023/04/21 07:01:51;;;;;;;42.50;33.70;;;;;;;16.36;82.53;99108.44;109190;1253;58874;-73
2023/04/21 07:04:18;;;;;;;46.00;35.20;;;;;;;16.29;82.92;99109.98;109483;1256;60328;-72
2023/04/21 07:06:45;;;;;;;42.80;34.00;;;;;;;16.20;83.15;99107.34;109495;1254;63308;-73
2023/04/21 07:09:11;;;;;;;39.00;30.70;;;;;;;16.10;83.42;99107.83;109471;1254;58141;-74
2023/04/21 07:11:38;;;;;;;41.40;30.40;;;;;;;15.93;82.93;99107.02;109515;1253;58141;-73
2023/04/21 07:14:05;;;;;;;33.90;26.50;;;;;;;15.79;82.23;99107.52;109545;1254;63707;-72
2023/04/21 07:16:31;;;;;;;31.30;25.60;;;;;;;15.55;81.28;99105.25;109492;1254;60189;-72
2023/04/21 07:18:58;;;;;;;31.80;24.50;;;;;;;15.39;82.26;99107.15;109484;1254;58265;-72
2023/04/21 07:21:24;;;;;;;31.40;24.70;;;;;;;15.37;82.44;99107.64;109452;1252;58158;-73
2023/04/21 07:23:51;;;;;;;30.00;25.00;;;;;;;15.38;82.70;99106.56;109505;1252;58212;-73
2023/04/21 07:26:17;;;;;;;28.50;23.80;;;;;;;15.39;82.61;99104.83;109509;1253;58180;-72
2023/04/21 07:28:44;;;;;;;29.40;24.40;;;;;;;15.39;82.55;99104.31;109502;1253;58281;-72
2023/04/21 07:31:10;;;;;;;30.20;23.30;;;;;;;15.41;82.82;99101.08;109480;1253;58175;-73
2023/04/21 07:33:36;;;;;;;27.10;21.40;;;;;;;15.45;82.40;99100.77;109490;1253;58264;-73
2023/04/21 07:36:03;;;;;;;28.80;21.30;;;;;;;15.50;82.85;99095.84;109559;1252;58365;-72
2023/04/21 07:38:30;;;;;;;29.00;22.50;;;;;;;15.61;82.73;99093.86;109347;1253;65274;-72
2023/04/21 07:40:56;;;;;;;27.00;22.30;;;;;;;15.70;83.61;99090.73;109474;1253;60148;-72
2023/04/21 07:43:24;;;;;;;28.00;21.10;;;;;;;15.82;82.71;99090.48;109470;1254;64113;-72
2023/04/21 07:45:51;;;;;;;27.00;20.10;;;;;;;15.88;82.73;99089.55;109482;1253;58317;-73
2023/04/21 07:48:17;;;;;;;25.70;18.20;;;;;;;16.00;81.89;99090.84;109534;1252;58303;-74
2023/04/21 07:50:44;;;;;;;21.20;18.60;;;;;;;16.05;81.30;99087.67;109523;1253;65330;-73
2023/04/21 07:53:10;;;;;;;25.60;19.90;;;;;;;16.09;79.65;99085.21;109504;1254;58237;-73
2023/04/21 07:55:37;;;;;;;20.40;17.80;;;;;;;16.05;78.42;99086.29;109467;1251;58368;-73
2023/04/21 07:58:04;;;;;;;22.60;18.60;;;;;;;16.06;78.09;99084.79;109503;1252;58523;-73
2023/04/21 08:00:31;;;;;;;27.00;19.90;;;;;;;16.11;78.34;99083.61;109383;1253;58219;-74
2023/04/21 08:02:57;;;;;;;24.90;19.40;;;;;;;16.14;77.77;99084.36;109482;1253;64086;-72
2023/04/21 08:05:24;;;;;;;22.70;18.60;;;;;;;16.22;78.10;99078.50;109500;1253;60222;-73
2023/04/21 08:07:51;;;;;;;22.00;17.50;;;;;;;16.34;78.24;99079.76;109495;1252;63410;-73
2023/04/21 08:10:17;;;;;;;22.40;18.40;;;;;;;16.46;77.86;99078.48;109492;1254;58209;-73
2023/04/21 08:12:44;;;;;;;25.80;19.60;;;;;;;16.55;77.14;99079.23;109500;1253;58489;-73
2023/04/21 08:15:11;;;;;;;19.70;17.50;;;;;;;16.61;76.56;99082.34;109471;1254;58308;-74
2023/04/21 08:17:37;;;;;;;26.90;17.70;;;;;;;16.67;75.68;99083.03;109480;1253;60155;-73
2023/04/21 08:20:05;;;;;;;23.10;18.10;;;;;;;16.72;75.30;99081.36;109174;1254;58246;-73
2023/04/21 08:22:32;;;;;;;22.70;17.90;;;;;;;16.78;75.25;99080.23;109491;1254;58162;-73
2023/04/21 08:24:58;;;;;;;24.70;19.30;;;;;;;16.90;76.03;99073.64;109480;1252;58214;-73
2023/04/21 08:27:25;;;;;;;29.70;20.40;;;;;;;17.04;75.23;99076.11;109528;1252;65199;-74
2023/04/21 08:29:51;;;;;;;25.20;20.10;;;;;;;17.08;74.42;99073.55;109471;1254;58131;-73
2023/04/21 08:32:22;;;;;;;25.00;19.90;;;;;;;17.09;74.08;99073.61;109462;1254;58263;-73
2023/04/21 08:34:50;;;;;;;26.60;20.50;;;;;;;17.19;74.21;99070.36;109461;1253;58084;-73
2023/04/21 08:37:18;;;;;;;27.20;18.70;;;;;;;17.28;73.26;99072.48;109507;1256;58251;-73
2023/04/21 08:39:45;;;;;;;27.70;17.80;;;;;;;17.36;72.85;99071.19;109455;1253;65236;-74
2023/04/21 08:42:13;;;;;;;22.50;17.50;;;;;;;17.45;72.82;99066.49;109499;1252;60126;-73
2023/04/21 08:44:40;;;;;;;21.10;16.40;;;;;;;17.54;72.26;99064.80;109469;1252;64116;-73
2023/04/21 08:47:10;;;;;;;22.20;14.70;;;;;;;17.58;71.41;99066.94;109517;1254;58256;-74
2023/04/21 08:49:38;;;;;;;18.50;15.30;;;;;;;17.63;70.69;99062.85;109533;1254;58279;-74
2023/04/21 08:52:05;;;;;;;18.70;15.00;;;;;;;17.73;71.01;99061.33;109339;1253;64288;-72
2023/04/21 08:54:32;;;;;;;17.70;14.80;;;;;;;17.91;71.56;99058.53;109495;1254;58921;-73
2023/04/21 08:56:59;;;;;;;15.60;13.90;;;;;;;18.13;70.83;99051.45;109256;1252;64060;-73
2023/04/21 08:59:26;;;;;;;16.80;13.70;;;;;;;18.33;70.96;99049.68;109130;1253;58201;-72
2023/04/21 09:02:10;;;;;;;17.60;13.40;;;;;;;18.52;70.57;99048.89;109359;1252;58113;-72
2023/04/21 09:04:39;;;;;;;16.30;12.60;;;;;;;18.73;69.93;99043.74;109488;1253;65034;-72
2023/04/21 09:07:07;;;;;;;18.20;13.30;;;;;;;18.94;68.99;99042.15;109396;1254;60172;-73
2023/04/21 09:09:54;;;;;;;19.40;12.80;;;;;;;19.03;67.37;99035.64;109502;1252;64118;-72
2023/04/21 09:12:20;;;;;;;17.70;11.70;;;;;;;19.25;66.53;99034.16;109434;1252;58148;-72
2023/04/21 09:14:47;;;;;;;16.30;12.10;;;;;;;19.37;65.31;99031.65;109489;1252;58232;-72
2023/04/21 09:17:16;;;;;;;15.10;12.10;;;;;;;19.50;65.99;99026.69;109439;1252;64114;-72
2023/04/21 09:19:43;;;;;;;10.60;9.50;;;;;;;19.72;66.12;99021.73;109330;1252;197440;-73
2023/04/21 09:22:17;;;;;;;14.60;10.10;;;;;;;19.94;65.54;99016.27;109474;1252;64042;-72
2023/04/21 09:24:45;;;;;;;14.30;9.20;;;;;;;19.97;65.07;99015.41;109412;1253;58192;-72
2023/04/21 09:27:15;;;;;;;11.70;9.20;;;;;;;20.04;64.55;99016.42;109457;1251;58259;-72
2023/04/21 09:29:47;;;;;;;13.00;9.00;;;;;;;20.22;62.67;99009.98;109139;1254;65325;-74
2023/04/21 09:32:18;;;;;;;12.80;8.50;;;;;;;20.37;62.71;99009.64;109462;1253;60177;-73
2023/04/21 09:34:45;;;;;;;11.00;9.80;;;;;;;20.48;59.91;99009.33;109435;1254;64047;-73
2023/04/21 09:37:13;;;;;;;10.70;9.60;;;;;;;20.48;59.12;99006.52;109449;1254;58279;-73
2023/04/21 09:39:44;;;;;;;14.70;9.50;;;;;;;20.43;59.07;99005.35;109431;1253;58107;-73
2023/04/21 09:42:10;;;;;;;14.50;9.10;;;;;;;20.55;60.07;99002.34;109456;1253;64009;-73
2023/04/21 09:44:37;;;;;;;11.40;9.30;;;;;;;20.71;60.00;98997.36;109462;1254;58912;-73
2023/04/21 09:47:06;;;;;;;14.80;10.30;;;;;;;20.77;59.34;99001.22;109484;1252;64117;-73
2023/04/21 09:49:35;;;;;;;11.70;9.00;;;;;;;20.64;58.99;98999.77;109282;1254;58608;-73
2023/04/21 09:52:02;;;;;;;14.10;9.30;;;;;;;20.46;58.70;99001.81;109508;1252;58108;-73
2023/04/21 09:54:32;;;;;;;12.00;10.40;;;;;;;20.32;58.78;98998.66;109339;1253;65226;-73
2023/04/21 09:57:01;;;;;;;14.70;9.40;;;;;;;20.23;58.92;98995.66;109344;1254;58957;-73
2023/04/21 09:59:35;;;;;;;13.90;9.40;;;;;;;20.16;58.80;98994.73;109507;1252;64180;-73
2023/04/21 10:02:06;;;;;;;13.40;9.90;;;;;;;20.09;59.18;98993.71;109295;1253;58301;-74
2023/04/21 10:04:35;;;;;;;12.20;9.10;;;;;;;20.01;59.22;98990.94;109441;1252;58298;-74
2023/04/21 10:07:02;;;;;;;11.00;8.40;;;;;;;19.87;57.94;98993.98;109361;1253;65094;-74
2023/04/21 10:09:56;;;;;;;8.10;7.20;;;;;;;19.63;55.75;98994.16;109497;1253;60252;-74
2023/04/21 10:12:25;;;;;;;12.20;8.00;;;;;;;19.29;54.76;98992.80;108890;1260;64092;-72
2023/04/21 10:14:56;;;;;;;9.80;7.80;;;;;;;19.12;55.33;98991.35;108860;1261;58180;-74
2023/04/21 10:17:24;;;;;;;9.90;8.00;;;;;;;18.97;54.72;98991.94;108891;1260;58422;-73
2023/04/21 10:19:56;;;;;;;9.60;7.80;;;;;;;18.83;54.52;98990.84;108935;1260;63951;-73
2023/04/21 10:22:30;;;;;;;8.50;7.60;;;;;;;18.76;54.51;98988.70;108861;1260;58646;-74
2023/04/21 10:24:59;;;;;;;10.70;7.70;;;;;;;18.75;53.54;98984.86;108631;1260;62787;-73
2023/04/21 10:27:44;;;;;;;11.90;7.50;;;;;;;18.72;52.35;98980.33;108831;1260;58274;-73
2023/04/21 10:30:22;;;;;;;13.10;7.50;;;;;;;18.88;52.09;98978.15;108863;1260;58308;-74
2023/04/21 10:33:01;;;;;;;9.90;7.00;;;;;;;19.33;52.52;98974.23;108833;1260;65288;-74
2023/04/21 10:35:58;;;;;;;9.80;6.90;;;;;;;19.84;51.71;98965.85;108833;1261;58951;-73
2023/04/21 10:38:42;;;;;;;7.90;6.90;;;;;;;20.32;49.87;98966.34;108966;1259;64047;-74
2023/04/21 10:41:28;;;;;;;7.80;6.40;;;;;;;20.70;49.52;98964.73;108872;1260;58358;-73
2023/04/21 10:44:21;;;;;;;11.70;7.50;;;;;;;21.01;48.75;98960.31;108858;1260;58568;-73
2023/04/21 10:46:52;;;;;;;8.20;6.70;;;;;;;21.16;48.40;98954.46;108891;1260;64143;-73
2023/04/21 10:49:27;;;;;;;7.60;6.90;;;;;;;21.32;48.27;98951.33;109053;1253;59449;-73
2023/04/21 10:52:01;;;;;;;6.60;6.00;;;;;;;21.47;45.98;98947.05;109455;1252;64063;-73
2023/04/21 10:54:41;;;;;;;7.60;6.10;;;;;;;21.58;44.15;98940.55;109470;1253;58187;-73
2023/04/21 10:57:10;;;;;;;6.80;5.70;;;;;;;21.70;43.77;98938.64;109486;1252;58060;-73
2023/04/21 10:59:37;;;;;;;7.60;6.30;;;;;;;21.87;43.39;98934.46;109334;1252;65252;-73
2023/04/21 11:02:15;;;;;;;7.90;6.80;;;;;;;22.07;43.89;98934.20;109347;1253;58979;-73
2023/04/21 11:04:46;;;;;;;8.20;7.20;;;;;;;22.27;43.22;98934.17;109448;1253;64046;-73
2023/04/21 11:07:15;;;;;;;7.60;5.80;;;;;;;22.31;41.91;98937.21;109345;1253;58230;-73
2023/04/21 11:09:43;;;;;;;9.60;6.10;;;;;;;22.01;40.24;98939.69;109184;1253;58238;-73
2023/04/21 11:12:16;;;;;;;7.60;5.50;;;;;;;21.57;39.21;98939.16;109311;1252;65248;-73
2023/04/21 11:14:46;;;;;;;6.10;5.30;;;;;;;21.18;39.02;98940.85;109463;1252;58987;-73